createdAt,value
2018-03-03T00:00:34.614Z,21.05
2018-03-03T00:03:02.814Z,19.27
2018-03-03T00:05:31.024Z,19.12
2018-03-03T00:07:59.218Z,18.70
2018-03-03T00:10:28.139Z,19.75
2018-03-03T00:12:56.331Z,20.95
2018-03-03T00:15:24.484Z,21.05
2018-03-03T00:17:52.687Z,21.08
2018-03-03T00:20:20.872Z,17.83
2018-03-03T00:22:49.067Z,18.17
2018-03-03T00:25:18.056Z,19.42
2018-03-03T00:27:46.263Z,19.33
2018-03-03T00:30:14.639Z,19.45
2018-03-03T00:32:42.824Z,20.98
2018-03-03T00:35:11.052Z,20.52
2018-03-03T00:37:39.263Z,20.73
2018-03-03T00:40:07.436Z,21.95
2018-03-03T00:42:35.646Z,21.80
2018-03-03T00:45:03.894Z,20.27
2018-03-03T00:47:32.256Z,20.35
2018-03-03T00:50:00.474Z,20.05
2018-03-03T00:52:28.654Z,20.70
2018-03-03T00:54:56.885Z,22.37
2018-03-03T00:57:25.059Z,19.05
2018-03-03T00:59:53.238Z,23.40
2018-03-03T01:02:21.618Z,19.42
2018-03-03T01:04:49.769Z,21.85
2018-03-03T01:07:18.083Z,17.80
2018-03-03T01:09:46.274Z,22.27
2018-03-03T01:12:14.469Z,18.02
2018-03-03T01:14:42.683Z,24.77
2018-03-03T01:17:10.924Z,21.17
2018-03-03T01:19:39.948Z,18.95
2018-03-03T01:22:08.182Z,20.23
2018-03-03T01:24:36.407Z,21.00
2018-03-03T01:27:04.597Z,21.27
2018-03-03T01:29:32.952Z,22.25
2018-03-03T01:32:01.767Z,21.77
2018-03-03T01:34:30.022Z,23.52
2018-03-03T01:36:58.187Z,22.67
2018-03-03T01:39:26.411Z,24.25
2018-03-03T01:41:54.583Z,23.25
2018-03-03T01:44:22.770Z,22.45
2018-03-03T01:46:51.830Z,22.83
2018-03-03T01:49:20.081Z,25.12
2018-03-03T01:51:48.263Z,23.38
2018-03-03T01:54:16.487Z,22.35
2018-03-03T01:56:46.196Z,23.65
2018-03-03T01:59:14.393Z,22.65
2018-03-03T02:01:42.548Z,26.12
2018-03-03T02:04:10.870Z,25.80
2018-03-03T02:06:39.139Z,22.23
2018-03-03T02:09:07.319Z,20.20
2018-03-03T02:11:35.496Z,23.62
2018-03-03T02:14:03.687Z,23.65
2018-03-03T02:16:31.891Z,24.70
2018-03-03T02:19:00.330Z,22.45
2018-03-03T02:21:28.484Z,25.85
2018-03-03T02:23:56.617Z,20.77
2018-03-03T02:26:24.798Z,19.20
2018-03-03T02:28:52.967Z,21.27
2018-03-03T02:31:21.164Z,21.98
2018-03-03T02:33:49.442Z,24.92
2018-03-03T02:36:17.634Z,21.10
2018-03-03T02:38:46.004Z,24.17
2018-03-03T02:41:14.167Z,27.80
2018-03-03T02:43:42.338Z,22.33
2018-03-03T02:46:10.547Z,26.27
2018-03-03T02:48:38.832Z,23.25
2018-03-03T02:51:07.214Z,21.70
2018-03-03T02:53:36.274Z,22.25
2018-03-03T02:56:04.440Z,20.27
2018-03-03T02:58:32.606Z,21.42
2018-03-03T03:01:00.759Z,21.52
2018-03-03T03:03:29.552Z,22.25
2018-03-03T03:05:57.733Z,22.92
2018-03-03T03:08:26.045Z,23.25
2018-03-03T03:10:54.221Z,21.10
2018-03-03T03:13:22.393Z,20.40
2018-03-03T03:15:50.619Z,23.92
2018-03-03T03:18:18.845Z,21.17
2018-03-03T03:20:47.032Z,18.98
2018-03-03T03:23:16.002Z,20.05
2018-03-03T03:25:44.181Z,22.15
2018-03-03T03:28:12.512Z,22.05
2018-03-03T03:30:40.763Z,24.30
2018-03-03T03:33:09.007Z,21.42
2018-03-03T03:35:37.182Z,23.60
2018-03-03T03:38:05.383Z,26.83
2018-03-03T03:40:33.580Z,22.58
2018-03-03T03:43:01.755Z,19.12
2018-03-03T03:45:30.697Z,23.10
2018-03-03T03:47:58.868Z,27.73
2018-03-03T03:50:27.099Z,26.73
2018-03-03T03:52:55.294Z,23.95
2018-03-03T03:55:23.448Z,22.98
2018-03-03T03:57:51.618Z,26.62
2018-03-03T04:00:19.840Z,25.23
2018-03-03T04:02:48.764Z,24.42
2018-03-03T04:05:16.933Z,24.33
2018-03-03T04:07:45.115Z,20.83
2018-03-03T04:10:13.278Z,25.50
2018-03-03T04:12:41.550Z,25.40
2018-03-03T04:15:10.481Z,29.48
2018-03-03T04:17:38.651Z,27.52
2018-03-03T04:20:06.879Z,22.48
2018-03-03T04:22:35.834Z,29.52
2018-03-03T04:25:04.087Z,23.17
2018-03-03T04:27:32.321Z,28.58
2018-03-03T04:30:01.426Z,27.13
2018-03-03T04:32:29.577Z,23.02
2018-03-03T04:34:57.813Z,23.60
2018-03-03T04:37:25.974Z,23.95
2018-03-03T04:39:54.160Z,22.87
2018-03-03T04:42:22.352Z,25.85
2018-03-03T04:44:50.508Z,23.83
2018-03-03T04:47:18.674Z,21.60
2018-03-03T04:49:46.836Z,27.62
2018-03-03T04:52:15.028Z,25.17
2018-03-03T04:54:43.230Z,27.87
2018-03-03T04:57:11.444Z,26.17
2018-03-03T04:59:44.990Z,25.30
2018-03-03T05:02:13.307Z,29.20
2018-03-03T05:04:47.105Z,24.35
2018-03-03T05:07:20.769Z,31.50
2018-03-03T05:09:48.978Z,26.08
2018-03-03T05:12:20.348Z,26.52
2018-03-03T05:14:50.860Z,30.00
2018-03-03T05:20:38.119Z,26.25
2018-03-03T05:23:11.723Z,28.67
2018-03-03T05:25:45.314Z,25.48
2018-03-03T05:28:20.859Z,23.92
2018-03-03T05:30:54.611Z,24.80
2018-03-03T05:33:28.386Z,25.80
2018-03-03T05:35:59.277Z,27.33
2018-03-03T05:38:33.740Z,26.65
2018-03-03T05:44:19.649Z,23.73
2018-03-03T05:46:53.390Z,23.35
2018-03-03T05:49:27.706Z,26.10
2018-03-03T05:52:01.512Z,25.65
2018-03-03T05:54:35.199Z,30.62
2018-03-03T05:57:06.918Z,28.50
2018-03-03T05:59:40.703Z,25.50
2018-03-03T06:02:13.276Z,25.05
2018-03-03T06:04:59.065Z,24.00
2018-03-03T06:07:38.051Z,22.90
2018-03-03T06:13:05.134Z,26.23
2018-03-03T06:15:34.185Z,26.52
2018-03-03T06:18:02.459Z,29.52
2018-03-03T06:20:30.754Z,24.52
2018-03-03T06:22:58.962Z,24.00
2018-03-03T06:25:28.082Z,26.15
2018-03-03T06:27:56.418Z,27.33
2018-03-03T06:30:24.635Z,26.55
2018-03-03T06:32:52.826Z,26.52
2018-03-03T06:35:21.077Z,28.42
2018-03-03T06:37:49.283Z,34.97
2018-03-03T06:40:17.457Z,30.23
2018-03-03T06:42:45.718Z,28.15
2018-03-03T06:45:13.876Z,27.45
2018-03-03T06:47:42.048Z,28.77
2018-03-03T06:50:10.222Z,25.42
2018-03-03T06:52:38.405Z,27.42
2018-03-03T06:55:06.563Z,28.48
2018-03-03T06:57:34.740Z,31.58
2018-03-03T07:00:02.907Z,29.30
2018-03-03T07:02:31.053Z,27.80
2018-03-03T07:04:59.210Z,29.67
2018-03-03T07:07:27.440Z,26.58
2018-03-03T07:09:55.624Z,23.95
2018-03-03T07:12:23.784Z,28.70
2018-03-03T07:14:56.556Z,31.67
2018-03-03T07:17:24.714Z,30.77
2018-03-03T07:19:52.917Z,29.33
2018-03-03T07:22:21.071Z,28.35
2018-03-03T07:24:49.219Z,27.15
2018-03-03T07:27:18.194Z,26.08
2018-03-03T07:29:46.365Z,24.30
2018-03-03T07:32:14.582Z,28.42
2018-03-03T07:34:42.796Z,30.75
2018-03-03T07:37:11.011Z,28.77
2018-03-03T07:39:39.942Z,29.80
2018-03-03T07:42:08.141Z,30.42
2018-03-03T07:44:36.337Z,29.95
2018-03-03T07:47:04.489Z,27.13
2018-03-03T07:49:32.679Z,27.37
2018-03-03T07:52:00.861Z,24.15
2018-03-03T07:54:29.962Z,28.25
2018-03-03T07:57:11.826Z,28.35
2018-03-03T07:59:40.058Z,23.95
2018-03-03T08:02:08.257Z,29.05
2018-03-03T08:04:36.500Z,24.40
2018-03-03T08:07:04.706Z,27.35
2018-03-03T08:09:32.828Z,26.23
2018-03-03T08:12:01.852Z,26.50
2018-03-03T08:14:30.035Z,27.00
2018-03-03T08:16:58.191Z,27.45
2018-03-03T08:19:26.392Z,27.60
2018-03-03T08:21:55.433Z,26.30
2018-03-03T08:24:23.618Z,28.42
2018-03-03T08:26:51.818Z,25.35
2018-03-03T08:31:54.381Z,27.55
2018-03-03T08:34:23.304Z,23.50
2018-03-03T08:36:51.509Z,28.83
2018-03-03T08:39:19.706Z,28.80
2018-03-03T08:41:48.741Z,23.92
2018-03-03T08:44:17.004Z,27.15
2018-03-03T08:46:45.245Z,26.05
2018-03-03T08:49:14.167Z,26.83
2018-03-03T08:51:42.424Z,26.83
2018-03-03T08:54:10.651Z,25.98
2018-03-03T08:56:38.837Z,29.80
2018-03-03T08:59:07.000Z,24.92
2018-03-03T09:01:36.772Z,25.55
2018-03-03T09:04:04.954Z,30.05
2018-03-03T09:06:33.278Z,23.77
2018-03-03T09:09:01.445Z,24.67
2018-03-03T09:11:29.611Z,26.17
2018-03-03T09:13:57.798Z,22.77
2018-03-03T09:16:26.044Z,26.27
2018-03-03T09:18:54.223Z,26.90
2018-03-03T09:21:22.520Z,26.60
2018-03-03T09:23:50.698Z,26.48
2018-03-03T09:26:18.925Z,26.42
2018-03-03T09:28:47.466Z,26.77
2018-03-03T09:31:16.463Z,23.58
2018-03-03T09:33:44.716Z,27.98
2018-03-03T09:36:13.011Z,21.62
2018-03-03T09:38:42.005Z,23.92
2018-03-03T09:41:11.010Z,26.23
2018-03-03T09:43:39.291Z,25.23
2018-03-03T09:46:07.503Z,24.25
2018-03-03T09:48:35.659Z,24.05
2018-03-03T09:51:03.824Z,28.00
2018-03-03T09:53:32.216Z,21.80
2018-03-03T09:56:00.576Z,24.10
2018-03-03T09:58:28.859Z,27.10
2018-03-03T10:00:57.023Z,26.95
2018-03-03T10:03:25.407Z,25.55
2018-03-03T10:05:53.568Z,28.42
2018-03-03T10:08:21.787Z,26.55
2018-03-03T10:10:50.106Z,26.80
2018-03-03T10:13:18.289Z,26.92
2018-03-03T10:15:46.438Z,32.17
2018-03-03T10:18:15.347Z,24.20
2018-03-03T10:20:43.506Z,22.13
2018-03-03T10:23:11.752Z,28.15
2018-03-03T10:25:39.920Z,23.52
2018-03-03T10:28:08.079Z,26.62
2018-03-03T10:30:36.233Z,24.35
2018-03-03T10:33:04.434Z,24.42
2018-03-03T10:35:33.419Z,26.33
2018-03-03T10:38:01.608Z,23.80
2018-03-03T10:40:29.787Z,24.35
2018-03-03T10:42:57.974Z,24.55
2018-03-03T10:45:26.932Z,24.60
2018-03-03T10:47:55.115Z,26.85
2018-03-03T10:50:23.467Z,23.20
2018-03-03T10:52:51.627Z,22.25
2018-03-03T10:55:19.863Z,23.95
2018-03-03T10:57:48.791Z,25.35
2018-03-03T11:00:22.358Z,25.85
2018-03-03T11:02:51.332Z,25.12
2018-03-03T11:05:19.526Z,25.67
2018-03-03T11:07:47.758Z,22.08
2018-03-03T11:10:15.988Z,21.40
2018-03-03T11:12:44.229Z,20.52
2018-03-03T11:15:12.428Z,24.05
2018-03-03T11:17:40.652Z,22.98
2018-03-03T11:20:08.942Z,21.70
2018-03-03T11:22:37.153Z,20.62
2018-03-03T11:25:05.472Z,21.83
2018-03-03T11:27:33.769Z,21.85
2018-03-03T11:30:01.985Z,20.95
2018-03-03T11:32:30.187Z,19.55
2018-03-03T11:34:58.427Z,23.15
2018-03-03T11:37:26.664Z,21.98
2018-03-03T11:39:54.954Z,19.35
2018-03-03T11:42:23.910Z,23.87
2018-03-03T11:44:52.074Z,23.45
2018-03-03T11:47:20.294Z,22.92
2018-03-03T11:49:49.300Z,23.25
2018-03-03T11:52:18.388Z,22.20
2018-03-03T11:54:46.603Z,20.55
2018-03-03T11:57:14.767Z,20.48
2018-03-03T11:59:42.979Z,20.62
2018-03-03T12:02:11.230Z,21.48
2018-03-03T12:04:39.561Z,18.95
2018-03-03T12:07:08.547Z,20.67
2018-03-03T12:09:37.514Z,21.85
2018-03-03T12:12:05.706Z,21.05
2018-03-03T12:14:33.911Z,20.90
2018-03-03T12:17:02.994Z,25.75
2018-03-03T12:19:32.067Z,18.37
2018-03-03T12:22:00.295Z,21.12
2018-03-03T12:24:28.493Z,20.83
2018-03-03T12:26:56.710Z,18.98
2018-03-03T12:29:25.613Z,17.55
2018-03-03T12:31:53.832Z,18.50
2018-03-03T12:34:22.146Z,19.00
2018-03-03T12:36:51.118Z,17.23
2018-03-03T12:39:19.314Z,18.92
2018-03-03T12:41:47.652Z,20.92
2018-03-03T12:44:15.921Z,21.40
2018-03-03T12:46:44.217Z,18.52
2018-03-03T12:49:12.530Z,21.98
2018-03-03T12:51:40.702Z,16.98
2018-03-03T12:54:08.907Z,20.40
2018-03-03T12:56:37.232Z,16.52
2018-03-03T12:59:06.213Z,17.60
2018-03-03T13:01:34.470Z,20.70
2018-03-03T13:04:02.684Z,16.40
2018-03-03T13:06:30.980Z,18.55
2018-03-03T13:08:59.101Z,17.52
2018-03-03T13:11:27.304Z,16.50
2018-03-03T13:13:55.498Z,16.90
2018-03-03T13:16:23.638Z,17.75
2018-03-03T13:18:52.595Z,18.52
2018-03-03T13:21:20.786Z,16.90
2018-03-03T13:23:48.956Z,18.45
2018-03-03T13:26:17.177Z,17.83
2018-03-03T13:28:45.386Z,17.35
2018-03-03T13:31:13.724Z,18.70
2018-03-03T13:33:41.922Z,14.85
2018-03-03T13:36:11.931Z,15.90
2018-03-03T13:38:40.761Z,14.93
2018-03-03T13:41:09.761Z,16.35
2018-03-03T13:43:38.821Z,18.77
2018-03-03T13:46:07.001Z,16.08
2018-03-03T13:48:35.210Z,14.23
2018-03-03T13:51:04.142Z,15.00
2018-03-03T13:53:32.305Z,16.40
2018-03-03T13:56:00.475Z,16.12
2018-03-03T13:58:28.761Z,18.02
2018-03-03T14:00:56.928Z,19.92
2018-03-03T14:03:25.182Z,15.73
2018-03-03T14:05:53.346Z,14.73
2018-03-03T14:08:22.348Z,15.52
2018-03-03T14:10:50.550Z,16.20
2018-03-03T14:13:18.747Z,14.52
2018-03-03T14:15:47.026Z,15.05
2018-03-03T14:18:15.256Z,16.33
2018-03-03T14:20:43.448Z,16.70
2018-03-03T14:23:11.619Z,15.07
2018-03-03T14:25:39.766Z,14.95
2018-03-03T14:28:07.966Z,16.23
2018-03-03T14:30:36.180Z,17.65
2018-03-03T14:33:04.399Z,14.40
2018-03-03T14:35:32.684Z,15.00
2018-03-03T14:38:00.903Z,15.85
2018-03-03T14:40:29.121Z,15.70
2018-03-03T14:42:57.347Z,14.87
2018-03-03T14:45:25.546Z,13.88
2018-03-03T14:47:54.735Z,16.62
2018-03-03T14:50:22.887Z,15.30
2018-03-03T14:52:51.136Z,19.85
2018-03-03T14:55:19.363Z,17.33
2018-03-03T14:57:48.290Z,16.95
2018-03-03T15:00:16.489Z,18.23
2018-03-03T15:02:44.650Z,14.55
2018-03-03T15:05:12.798Z,17.23
2018-03-03T15:07:41.022Z,14.70
2018-03-03T15:10:09.226Z,16.67
2018-03-03T15:12:38.223Z,15.95
2018-03-03T15:15:06.415Z,16.77
2018-03-03T15:17:34.615Z,16.15
2018-03-03T15:20:02.890Z,18.37
2018-03-03T15:22:31.110Z,21.73
2018-03-03T15:25:00.042Z,14.87
2018-03-03T15:27:28.216Z,17.77
2018-03-03T15:29:56.434Z,16.10
2018-03-03T15:32:24.596Z,16.55
2018-03-03T15:34:52.825Z,18.10
2018-03-03T15:37:20.991Z,20.02
2018-03-03T15:39:49.167Z,16.50
2018-03-03T15:42:17.352Z,16.65
2018-03-03T15:44:45.538Z,17.42
2018-03-03T15:47:13.770Z,19.67
2018-03-03T15:49:42.039Z,20.20
2018-03-03T15:52:10.265Z,18.10
2018-03-03T15:54:38.493Z,15.88
2018-03-03T15:57:06.757Z,19.05
2018-03-03T15:59:35.712Z,16.20
2018-03-03T16:02:03.886Z,21.00
2018-03-03T16:04:32.210Z,16.60
2018-03-03T16:07:00.506Z,17.58
2018-03-03T16:09:28.627Z,17.27
2018-03-03T16:11:56.842Z,16.45
2018-03-03T16:14:25.021Z,17.33
2018-03-03T16:16:53.245Z,16.73
2018-03-03T16:19:21.427Z,17.33
2018-03-03T16:21:50.431Z,17.42
2018-03-03T16:24:19.509Z,15.65
2018-03-03T16:26:47.660Z,18.37
2018-03-03T16:29:15.955Z,20.17
2018-03-03T16:31:44.293Z,17.77
2018-03-03T16:34:12.517Z,19.62
2018-03-03T16:36:41.645Z,20.75
2018-03-03T16:39:10.847Z,16.15
2018-03-03T16:41:39.066Z,17.67
2018-03-03T16:44:07.399Z,17.37
2018-03-03T16:46:35.625Z,18.10
2018-03-03T16:49:03.965Z,17.50
2018-03-03T16:51:32.233Z,17.42
2018-03-03T16:54:00.521Z,17.85
2018-03-03T16:56:28.714Z,17.17
2018-03-03T16:58:56.910Z,15.93
2018-03-03T17:01:25.892Z,18.98
2018-03-03T17:03:54.203Z,20.30
2018-03-03T17:06:22.434Z,17.15
2018-03-03T17:08:50.632Z,16.02
2018-03-03T17:11:19.660Z,16.75
2018-03-03T17:13:47.853Z,20.65
2018-03-03T17:16:16.376Z,17.42
2018-03-03T17:18:45.321Z,15.15
2018-03-03T17:21:14.091Z,18.37
2018-03-03T17:23:43.396Z,17.27
2018-03-03T17:26:11.619Z,19.10
2018-03-03T17:28:39.832Z,16.83
2018-03-03T17:31:08.015Z,17.70
2018-03-03T17:33:36.199Z,16.33
2018-03-03T17:36:04.435Z,19.12
2018-03-03T17:38:32.652Z,17.30
2018-03-03T17:41:00.832Z,16.70
2018-03-03T17:43:29.076Z,19.20
2018-03-03T17:45:57.395Z,18.67
2018-03-03T17:48:25.606Z,18.90
2018-03-03T17:50:53.850Z,17.50
2018-03-03T17:53:22.079Z,19.30
2018-03-03T17:55:50.264Z,18.50
2018-03-03T17:58:18.442Z,18.70
2018-03-03T18:00:46.648Z,16.65
2018-03-03T18:03:14.902Z,22.00
2018-03-03T18:05:43.217Z,19.35
2018-03-03T18:08:12.160Z,18.25
2018-03-03T18:10:40.414Z,18.15
2018-03-03T18:13:08.602Z,18.75
2018-03-03T18:15:36.791Z,18.50
2018-03-03T18:18:05.048Z,17.23
2018-03-03T18:20:33.230Z,18.83
2018-03-03T18:23:01.410Z,18.00
2018-03-03T18:25:29.598Z,19.45
2018-03-03T18:27:57.799Z,18.70
2018-03-03T18:30:26.868Z,20.83
2018-03-03T18:32:55.084Z,18.37
2018-03-03T18:35:23.275Z,19.87
2018-03-03T18:37:51.470Z,24.87
2018-03-03T18:40:19.739Z,19.27
2018-03-03T18:42:47.940Z,17.85
2018-03-03T18:45:16.131Z,17.33
2018-03-03T18:47:44.452Z,19.00
2018-03-03T18:50:13.539Z,21.73
2018-03-03T18:52:41.828Z,24.63
2018-03-03T18:55:09.995Z,19.10
2018-03-03T18:57:38.255Z,21.65
2018-03-03T19:00:06.435Z,20.33
2018-03-03T19:02:35.422Z,19.80
2018-03-03T19:05:03.670Z,18.98
2018-03-03T19:07:31.953Z,20.65
2018-03-03T19:10:00.168Z,20.60
2018-03-03T19:12:28.384Z,24.33
2018-03-03T19:14:56.578Z,20.77
2018-03-03T19:17:24.819Z,18.58
2018-03-03T19:19:53.079Z,24.58
2018-03-03T19:22:21.309Z,20.08
2018-03-03T19:24:49.486Z,23.00
2018-03-03T19:27:17.674Z,21.17
2018-03-03T19:29:45.873Z,20.58
2018-03-03T19:32:14.078Z,22.13
2018-03-03T19:34:43.002Z,22.20
2018-03-03T19:37:11.196Z,21.62
2018-03-03T19:39:39.491Z,20.98
2018-03-03T19:42:07.674Z,28.30
2018-03-03T19:44:35.845Z,22.65
2018-03-03T19:47:04.131Z,23.52
2018-03-03T19:49:33.129Z,20.08
2018-03-03T19:52:01.386Z,23.73
2018-03-03T19:54:29.769Z,22.95
2018-03-03T19:56:58.795Z,27.15
2018-03-03T19:59:26.979Z,21.60
2018-03-03T20:01:55.189Z,22.15
2018-03-03T20:04:23.357Z,21.58
2018-03-03T20:06:51.669Z,22.10
2018-03-03T20:09:20.724Z,22.35
2018-03-03T20:11:49.028Z,24.85
2018-03-03T20:14:17.200Z,23.23
2018-03-03T20:16:45.424Z,27.48
2018-03-03T20:19:13.607Z,22.27
2018-03-03T20:21:41.826Z,21.05
2018-03-03T20:24:10.014Z,23.70
2018-03-03T20:26:38.954Z,20.90
2018-03-03T20:29:07.106Z,23.30
2018-03-03T20:31:35.299Z,22.35
2018-03-03T20:34:03.513Z,22.73
2018-03-03T20:36:31.830Z,21.12
2018-03-03T20:39:00.040Z,21.70
2018-03-03T20:41:28.419Z,24.95
2018-03-03T20:43:56.664Z,23.08
2018-03-03T20:46:24.934Z,24.30
2018-03-03T20:48:53.172Z,23.60
2018-03-03T20:51:21.342Z,25.23
2018-03-03T20:53:50.284Z,23.83
2018-03-03T20:56:18.550Z,26.02
2018-03-03T20:58:46.835Z,23.20
2018-03-03T21:01:15.016Z,21.75
2018-03-03T21:03:43.331Z,26.40
2018-03-03T21:06:12.333Z,24.98
2018-03-03T21:08:41.320Z,24.67
2018-03-03T21:11:10.997Z,27.08
2018-03-03T21:13:39.202Z,21.37
2018-03-03T21:16:08.185Z,25.15
2018-03-03T21:18:36.424Z,28.00
2018-03-03T21:21:04.593Z,26.70
2018-03-03T21:23:32.942Z,25.37
2018-03-03T21:26:01.143Z,23.20
2018-03-03T21:28:29.381Z,24.37
2018-03-03T21:30:57.665Z,22.52
2018-03-03T21:33:25.858Z,22.50
2018-03-03T21:35:54.056Z,24.37
2018-03-03T21:38:22.244Z,23.60
2018-03-03T21:40:50.537Z,21.95
2018-03-03T21:43:19.500Z,25.37
2018-03-03T21:45:47.732Z,25.55
2018-03-03T21:48:15.984Z,28.67
2018-03-03T21:50:44.156Z,25.52
2018-03-03T21:53:12.364Z,25.27
2018-03-03T21:55:40.573Z,24.00
2018-03-03T21:58:08.813Z,22.48
2018-03-03T22:00:36.976Z,25.00
2018-03-03T22:03:05.999Z,25.48
2018-03-03T22:05:34.204Z,26.90
2018-03-03T22:08:02.402Z,24.85
2018-03-03T22:10:30.565Z,25.12
2018-03-03T22:12:58.784Z,22.90
2018-03-03T22:15:27.028Z,26.40
2018-03-03T22:17:55.187Z,21.95
2018-03-03T22:20:24.113Z,24.00
2018-03-03T22:22:52.282Z,22.67
2018-03-03T22:25:20.595Z,24.75
2018-03-03T22:27:48.774Z,21.62
2018-03-03T22:30:17.030Z,22.23
2018-03-03T22:32:45.267Z,23.73
2018-03-03T22:35:15.884Z,22.15
2018-03-03T22:37:44.174Z,24.65
2018-03-03T22:40:12.445Z,23.75
2018-03-03T22:42:40.623Z,22.08
2018-03-03T22:45:08.859Z,24.40
2018-03-03T22:47:37.842Z,22.70
2018-03-03T22:50:06.059Z,24.95
2018-03-03T22:52:34.216Z,22.80
2018-03-03T22:55:03.243Z,22.98
2018-03-03T22:57:31.478Z,23.52
2018-03-03T23:00:00.507Z,24.05
2018-03-03T23:02:28.686Z,22.92
2018-03-03T23:04:56.887Z,24.50
2018-03-03T23:07:25.103Z,22.42
2018-03-03T23:09:54.095Z,23.25
2018-03-03T23:12:22.289Z,21.05
2018-03-03T23:14:50.480Z,21.70
2018-03-03T23:17:18.674Z,20.83
2018-03-03T23:19:46.870Z,24.10
2018-03-03T23:22:15.119Z,23.17
2018-03-03T23:24:43.297Z,25.33
2018-03-03T23:27:11.579Z,22.85
2018-03-03T23:29:39.906Z,23.48
2018-03-03T23:32:08.172Z,21.73
2018-03-03T23:34:36.427Z,21.92
2018-03-03T23:37:05.396Z,20.58
2018-03-03T23:39:33.614Z,22.90
2018-03-03T23:42:01.795Z,23.25
2018-03-03T23:44:29.999Z,24.10
2018-03-03T23:46:58.158Z,21.92
2018-03-03T23:49:26.381Z,24.40
2018-03-03T23:51:55.359Z,23.02
2018-03-03T23:54:23.567Z,21.02
2018-03-03T23:56:51.864Z,24.85
2018-03-03T23:59:20.856Z,21.75
